Reno, NV (89501)

2:52 PM PST on February 24, 2017 (GMT -0800)
UNR Campus, LMR Roof | | Change Station

Elev 4570 ft 39.54 °N, 119.81 °W | Updated 34 seconds ago

Mostly Cloudy
Mostly Cloudy
37.2 °F
Feels Like 37 °F
N
2.7
Wind Variable Wind from SSW
Gusts 0.0 mph

Today
High -- | Low -- °F
--% Chance of Precip.
Yesterday
High -- | Low -- °F
Precip. -- in
Pressure 30.14 in
Visibility 10.0 miles
Clouds Few 5500 ft
Scattered Clouds 9000 ft
Mostly Cloudy 14000 ft
Mostly Cloudy 22000 ft
Windchill 37 °F
Dew Point 11 °F
Humidity 33%
Rainfall 0.00 in
Snow Depth Not available.
6:38 AM 5:46 PM
Waning Crescent, 3% visible
METAR KRNO 242155Z 12006KT 10SM FEW055 SCT090 BKN140 BKN220 03/M12 A3009 RMK AO2 SLP204 ACSL ALQDS SH DSNT SW MTN TOPS OBSCD DSNT SW T00281117
Pressure 30.14 in
Visibility 10.0 miles
Clouds Few 5500 ft
Scattered Clouds 9000 ft
Mostly Cloudy 14000 ft
Mostly Cloudy 22000 ft
Windchill 37 °F
Dew Point 11 °F
Humidity 33%
Rainfall 0.00 in
Snow Depth Not available.
6:38 AM 5:46 PM
Waning Crescent, 3% visible
METAR KRNO 242155Z 12006KT 10SM FEW055 SCT090 BKN140 BKN220 03/M12 A3009 RMK AO2 SLP204 ACSL ALQDS SH DSNT SW MTN TOPS OBSCD DSNT SW T00281117

Get Your Daily Forecast Email!

Thanks for signing up!

Be on the lookout for a verification email in your inbox.

You'll start receiving the daily forecast at 8 AM.

×

10-Day Weather Forecast

Almanac

Astronomy

Feb. 24, 2017 Rise Set
Actual Time
Civil Twilight
Nautical Twilight
Astronomical Twilight
Moon
Length of Visible Light
Length of Day
Tomorrow will be .
, % of the Moon is Illuminated

Today's Extremes

State Highs State Lows

Community

WunderPhotos

Upload Photos

1,962,540 photos uploaded!

WunderBlog® & News

Nearby

Air Quality

  Air Quality AQ Index Pollutant
Not available.

Snow Depth

Station Depth Elevation

Earthquake Activity

City Distance Mag. Time & Date
Minimum magnitude displayed is 2.5.

Coastal Water Temperatures

Place Temperature

Stations

Nearby Weather Stations

Station Location Temp. Windchill Dew Point Humidity Wind Precip. Elev Updated Type
                   

Watches & Warnings

There are currently no watches in effect.